sensor_id;sensor_type;location;lat;lon;timestamp;P1;durP1;ratioP1;P2;durP2;ratioP2
37791;SDS011;29527;55.766;37.570;2023-04-09T00:00:07;20.63;;;12.88;;
37791;SDS011;29527;55.766;37.570;2023-04-09T00:02:34;18.48;;;13.13;;
37791;SDS011;29527;55.766;37.570;2023-04-09T00:05:00;20.90;;;13.00;;
37791;SDS011;29527;55.766;37.570;2023-04-09T00:07:26;20.05;;;13.38;;
37791;SDS011;29527;55.766;37.570;2023-04-09T00:09:52;24.95;;;12.75;;
37791;SDS011;29527;55.766;37.570;2023-04-09T00:12:17;20.75;;;13.80;;
37791;SDS011;29527;55.766;37.570;2023-04-09T00:14:43;22.48;;;14.43;;
37791;SDS011;29527;55.766;37.570;2023-04-09T00:17:08;19.50;;;13.77;;
37791;SDS011;29527;55.766;37.570;2023-04-09T00:19:33;21.15;;;14.23;;
37791;SDS011;29527;55.766;37.570;2023-04-09T00:21:59;27.33;;;14.60;;
37791;SDS011;29527;55.766;37.570;2023-04-09T00:24:24;20.95;;;14.30;;
37791;SDS011;29527;55.766;37.570;2023-04-09T00:26:50;26.85;;;15.18;;
37791;SDS011;29527;55.766;37.570;2023-04-09T00:29:17;24.27;;;13.80;;
37791;SDS011;29527;55.766;37.570;2023-04-09T00:31:42;24.17;;;13.85;;
37791;SDS011;29527;55.766;37.570;2023-04-09T00:34:08;20.35;;;13.60;;
37791;SDS011;29527;55.766;37.570;2023-04-09T00:36:33;24.42;;;14.18;;
37791;SDS011;29527;55.766;37.570;2023-04-09T00:38:59;21.42;;;14.07;;
37791;SDS011;29527;55.766;37.570;2023-04-09T00:41:24;20.17;;;13.32;;
37791;SDS011;29527;55.766;37.570;2023-04-09T00:43:50;21.23;;;13.98;;
37791;SDS011;29527;55.766;37.570;2023-04-09T00:46:16;23.77;;;14.48;;
37791;SDS011;29527;55.766;37.570;2023-04-09T00:48:42;24.83;;;14.15;;
37791;SDS011;29527;55.766;37.570;2023-04-09T00:51:07;24.05;;;13.77;;
37791;SDS011;29527;55.766;37.570;2023-04-09T00:53:33;25.88;;;14.60;;
37791;SDS011;29527;55.766;37.570;2023-04-09T00:55:59;22.65;;;14.18;;
37791;SDS011;29527;55.766;37.570;2023-04-09T00:58:25;26.10;;;14.15;;
37791;SDS011;29527;55.766;37.570;2023-04-09T01:00:51;26.77;;;14.23;;
37791;SDS011;29527;55.766;37.570;2023-04-09T01:03:16;22.17;;;14.05;;
37791;SDS011;29527;55.766;37.570;2023-04-09T01:05:44;24.25;;;15.00;;
37791;SDS011;29527;55.766;37.570;2023-04-09T01:16:15;24.30;;;14.23;;
37791;SDS011;29527;55.766;37.570;2023-04-09T01:18:44;21.88;;;14.00;;
37791;SDS011;29527;55.766;37.570;2023-04-09T01:21:17;22.27;;;14.32;;
37791;SDS011;29527;55.766;37.570;2023-04-09T01:29:21;19.73;;;13.55;;
37791;SDS011;29527;55.766;37.570;2023-04-09T01:31:49;25.58;;;14.77;;
37791;SDS011;29527;55.766;37.570;2023-04-09T01:34:16;22.55;;;14.00;;
37791;SDS011;29527;55.766;37.570;2023-04-09T01:36:46;19.73;;;13.73;;
37791;SDS011;29527;55.766;37.570;2023-04-09T01:39:16;19.95;;;13.75;;
37791;SDS011;29527;55.766;37.570;2023-04-09T01:41:41;21.27;;;14.10;;
37791;SDS011;29527;55.766;37.570;2023-04-09T01:44:07;21.83;;;14.80;;
37791;SDS011;29527;55.766;37.570;2023-04-09T01:46:35;22.30;;;13.88;;
37791;SDS011;29527;55.766;37.570;2023-04-09T01:49:03;23.15;;;15.10;;
37791;SDS011;29527;55.766;37.570;2023-04-09T01:51:30;24.77;;;14.77;;
37791;SDS011;29527;55.766;37.570;2023-04-09T01:53:57;20.70;;;13.65;;
37791;SDS011;29527;55.766;37.570;2023-04-09T01:56:23;21.23;;;14.23;;
37791;SDS011;29527;55.766;37.570;2023-04-09T01:58:49;22.98;;;14.40;;
37791;SDS011;29527;55.766;37.570;2023-04-09T02:01:21;28.20;;;15.13;;
37791;SDS011;29527;55.766;37.570;2023-04-09T02:03:57;19.55;;;14.73;;
37791;SDS011;29527;55.766;37.570;2023-04-09T02:06:47;23.58;;;15.05;;
37791;SDS011;29527;55.766;37.570;2023-04-09T02:09:17;24.50;;;14.80;;
37791;SDS011;29527;55.766;37.570;2023-04-09T02:11:45;24.85;;;15.25;;
37791;SDS011;29527;55.766;37.570;2023-04-09T02:14:13;26.08;;;15.38;;
37791;SDS011;29527;55.766;37.570;2023-04-09T02:16:39;22.63;;;14.30;;
37791;SDS011;29527;55.766;37.570;2023-04-09T02:19:06;28.80;;;15.98;;
37791;SDS011;29527;55.766;37.570;2023-04-09T02:21:32;26.63;;;15.15;;
37791;SDS011;29527;55.766;37.570;2023-04-09T02:23:57;22.90;;;15.05;;
37791;SDS011;29527;55.766;37.570;2023-04-09T02:26:23;25.10;;;16.00;;
37791;SDS011;29527;55.766;37.570;2023-04-09T02:28:49;23.58;;;15.50;;
37791;SDS011;29527;55.766;37.570;2023-04-09T02:31:15;22.33;;;14.93;;
37791;SDS011;29527;55.766;37.570;2023-04-09T02:33:41;24.67;;;15.75;;
37791;SDS011;29527;55.766;37.570;2023-04-09T02:36:09;24.52;;;15.45;;
37791;SDS011;29527;55.766;37.570;2023-04-09T02:38:35;26.10;;;15.18;;
37791;SDS011;29527;55.766;37.570;2023-04-09T02:41:01;34.17;;;15.73;;
37791;SDS011;29527;55.766;37.570;2023-04-09T02:43:26;28.38;;;15.55;;
37791;SDS011;29527;55.766;37.570;2023-04-09T02:45:52;26.70;;;16.00;;
37791;SDS011;29527;55.766;37.570;2023-04-09T02:48:17;23.70;;;16.02;;
37791;SDS011;29527;55.766;37.570;2023-04-09T02:50:42;25.42;;;15.63;;
37791;SDS011;29527;55.766;37.570;2023-04-09T02:53:08;26.25;;;15.52;;
37791;SDS011;29527;55.766;37.570;2023-04-09T02:55:34;29.95;;;16.17;;
37791;SDS011;29527;55.766;37.570;2023-04-09T02:57:59;23.98;;;16.08;;
37791;SDS011;29527;55.766;37.570;2023-04-09T03:00:25;29.23;;;16.63;;
37791;SDS011;29527;55.766;37.570;2023-04-09T03:02:50;30.42;;;16.52;;
37791;SDS011;29527;55.766;37.570;2023-04-09T03:05:15;31.67;;;17.67;;
37791;SDS011;29527;55.766;37.570;2023-04-09T03:07:41;32.45;;;16.00;;
37791;SDS011;29527;55.766;37.570;2023-04-09T03:10:06;21.58;;;15.70;;
37791;SDS011;29527;55.766;37.570;2023-04-09T03:12:32;25.55;;;16.75;;
37791;SDS011;29527;55.766;37.570;2023-04-09T03:14:58;29.15;;;16.65;;
37791;SDS011;29527;55.766;37.570;2023-04-09T03:17:23;33.10;;;17.08;;
37791;SDS011;29527;55.766;37.570;2023-04-09T03:19:51;25.20;;;17.45;;
37791;SDS011;29527;55.766;37.570;2023-04-09T03:22:17;27.48;;;17.40;;
37791;SDS011;29527;55.766;37.570;2023-04-09T03:24:43;29.92;;;16.75;;
37791;SDS011;29527;55.766;37.570;2023-04-09T03:27:08;33.13;;;17.63;;
37791;SDS011;29527;55.766;37.570;2023-04-09T03:29:34;31.23;;;17.05;;
37791;SDS011;29527;55.766;37.570;2023-04-09T03:32:00;23.70;;;17.10;;
37791;SDS011;29527;55.766;37.570;2023-04-09T03:34:25;34.53;;;16.70;;
37791;SDS011;29527;55.766;37.570;2023-04-09T03:36:51;27.25;;;17.33;;
37791;SDS011;29527;55.766;37.570;2023-04-09T03:39:16;27.52;;;17.05;;
37791;SDS011;29527;55.766;37.570;2023-04-09T03:41:42;24.60;;;16.58;;
37791;SDS011;29527;55.766;37.570;2023-04-09T03:44:07;27.05;;;16.38;;
37791;SDS011;29527;55.766;37.570;2023-04-09T03:46:32;29.52;;;17.23;;
37791;SDS011;29527;55.766;37.570;2023-04-09T03:48:58;25.30;;;17.00;;
37791;SDS011;29527;55.766;37.570;2023-04-09T03:51:23;23.73;;;16.17;;
37791;SDS011;29527;55.766;37.570;2023-04-09T03:53:50;25.83;;;16.40;;
37791;SDS011;29527;55.766;37.570;2023-04-09T03:56:16;21.30;;;15.60;;
37791;SDS011;29527;55.766;37.570;2023-04-09T03:58:41;25.90;;;16.52;;
37791;SDS011;29527;55.766;37.570;2023-04-09T04:01:07;24.15;;;16.30;;
37791;SDS011;29527;55.766;37.570;2023-04-09T04:03:32;26.42;;;16.30;;
37791;SDS011;29527;55.766;37.570;2023-04-09T04:06:01;30.67;;;17.13;;
37791;SDS011;29527;55.766;37.570;2023-04-09T04:08:28;28.08;;;17.25;;
37791;SDS011;29527;55.766;37.570;2023-04-09T04:10:53;30.10;;;17.20;;
37791;SDS011;29527;55.766;37.570;2023-04-09T04:13:19;24.20;;;17.13;;
37791;SDS011;29527;55.766;37.570;2023-04-09T04:15:45;30.17;;;16.92;;
37791;SDS011;29527;55.766;37.570;2023-04-09T04:18:10;25.55;;;15.35;;
37791;SDS011;29527;55.766;37.570;2023-04-09T04:20:36;25.40;;;16.67;;
37791;SDS011;29527;55.766;37.570;2023-04-09T04:23:03;25.58;;;16.30;;
37791;SDS011;29527;55.766;37.570;2023-04-09T04:25:28;23.20;;;16.02;;
37791;SDS011;29527;55.766;37.570;2023-04-09T04:27:55;25.95;;;16.42;;
37791;SDS011;29527;55.766;37.570;2023-04-09T04:30:20;31.67;;;16.85;;
37791;SDS011;29527;55.766;37.570;2023-04-09T04:32:46;26.08;;;16.60;;
37791;SDS011;29527;55.766;37.570;2023-04-09T04:35:12;25.83;;;16.85;;
37791;SDS011;29527;55.766;37.570;2023-04-09T04:37:38;23.80;;;16.27;;
37791;SDS011;29527;55.766;37.570;2023-04-09T04:40:05;32.20;;;16.83;;
37791;SDS011;29527;55.766;37.570;2023-04-09T04:42:31;26.67;;;16.85;;
37791;SDS011;29527;55.766;37.570;2023-04-09T04:44:57;30.25;;;16.35;;
37791;SDS011;29527;55.766;37.570;2023-04-09T04:47:23;25.90;;;16.67;;
37791;SDS011;29527;55.766;37.570;2023-04-09T04:49:48;29.05;;;16.52;;
37791;SDS011;29527;55.766;37.570;2023-04-09T04:52:14;22.95;;;16.35;;
37791;SDS011;29527;55.766;37.570;2023-04-09T04:54:39;22.27;;;16.30;;
37791;SDS011;29527;55.766;37.570;2023-04-09T04:57:05;26.52;;;16.70;;
37791;SDS011;29527;55.766;37.570;2023-04-09T04:59:30;27.90;;;16.55;;
37791;SDS011;29527;55.766;37.570;2023-04-09T05:01:56;26.25;;;16.45;;
37791;SDS011;29527;55.766;37.570;2023-04-09T05:04:21;28.42;;;16.50;;
37791;SDS011;29527;55.766;37.570;2023-04-09T05:06:47;27.67;;;16.95;;
37791;SDS011;29527;55.766;37.570;2023-04-09T05:09:12;25.85;;;16.80;;
37791;SDS011;29527;55.766;37.570;2023-04-09T05:11:38;29.50;;;17.05;;
37791;SDS011;29527;55.766;37.570;2023-04-09T05:14:03;25.25;;;16.75;;
37791;SDS011;29527;55.766;37.570;2023-04-09T05:16:30;30.98;;;17.15;;
37791;SDS011;29527;55.766;37.570;2023-04-09T05:18:56;28.20;;;17.55;;
37791;SDS011;29527;55.766;37.570;2023-04-09T05:21:21;25.55;;;17.27;;
37791;SDS011;29527;55.766;37.570;2023-04-09T05:23:47;22.40;;;17.02;;
37791;SDS011;29527;55.766;37.570;2023-04-09T05:26:12;27.85;;;17.88;;
37791;SDS011;29527;55.766;37.570;2023-04-09T05:28:38;24.70;;;17.77;;
37791;SDS011;29527;55.766;37.570;2023-04-09T05:31:03;29.80;;;17.40;;
37791;SDS011;29527;55.766;37.570;2023-04-09T05:33:29;28.50;;;17.63;;
37791;SDS011;29527;55.766;37.570;2023-04-09T05:35:54;29.40;;;17.55;;
37791;SDS011;29527;55.766;37.570;2023-04-09T05:38:20;36.20;;;17.98;;
37791;SDS011;29527;55.766;37.570;2023-04-09T05:40:45;30.58;;;18.02;;
37791;SDS011;29527;55.766;37.570;2023-04-09T05:43:13;30.25;;;17.75;;
37791;SDS011;29527;55.766;37.570;2023-04-09T05:45:38;33.60;;;19.48;;
37791;SDS011;29527;55.766;37.570;2023-04-09T05:48:04;32.30;;;19.80;;
37791;SDS011;29527;55.766;37.570;2023-04-09T05:50:29;34.53;;;19.27;;
37791;SDS011;29527;55.766;37.570;2023-04-09T05:52:55;29.17;;;18.52;;
37791;SDS011;29527;55.766;37.570;2023-04-09T05:55:21;36.65;;;19.05;;
37791;SDS011;29527;55.766;37.570;2023-04-09T05:57:46;30.13;;;18.13;;
37791;SDS011;29527;55.766;37.570;2023-04-09T06:00:12;23.48;;;17.00;;
37791;SDS011;29527;55.766;37.570;2023-04-09T06:02:38;23.60;;;16.92;;
37791;SDS011;29527;55.766;37.570;2023-04-09T06:05:03;23.52;;;16.58;;
37791;SDS011;29527;55.766;37.570;2023-04-09T06:07:29;29.85;;;17.80;;
37791;SDS011;29527;55.766;37.570;2023-04-09T06:09:54;28.45;;;17.65;;
37791;SDS011;29527;55.766;37.570;2023-04-09T06:12:20;33.60;;;18.98;;
37791;SDS011;29527;55.766;37.570;2023-04-09T06:14:47;28.13;;;19.08;;
37791;SDS011;29527;55.766;37.570;2023-04-09T06:17:13;30.83;;;17.73;;
37791;SDS011;29527;55.766;37.570;2023-04-09T06:19:38;31.52;;;18.70;;
37791;SDS011;29527;55.766;37.570;2023-04-09T06:22:04;32.58;;;19.50;;
37791;SDS011;29527;55.766;37.570;2023-04-09T06:24:30;34.30;;;18.48;;
37791;SDS011;29527;55.766;37.570;2023-04-09T06:26:58;25.38;;;18.67;;
37791;SDS011;29527;55.766;37.570;2023-04-09T06:29:24;28.98;;;18.20;;
37791;SDS011;29527;55.766;37.570;2023-04-09T06:31:50;30.92;;;17.73;;
37791;SDS011;29527;55.766;37.570;2023-04-09T06:34:15;25.92;;;17.08;;
37791;SDS011;29527;55.766;37.570;2023-04-09T06:36:40;27.85;;;17.92;;
37791;SDS011;29527;55.766;37.570;2023-04-09T06:39:07;28.95;;;18.67;;
37791;SDS011;29527;55.766;37.570;2023-04-09T06:41:33;26.95;;;17.80;;
37791;SDS011;29527;55.766;37.570;2023-04-09T06:43:58;27.80;;;17.00;;
37791;SDS011;29527;55.766;37.570;2023-04-09T06:46:24;32.28;;;17.15;;
37791;SDS011;29527;55.766;37.570;2023-04-09T06:48:50;24.98;;;15.90;;
37791;SDS011;29527;55.766;37.570;2023-04-09T06:51:15;24.13;;;17.40;;
37791;SDS011;29527;55.766;37.570;2023-04-09T06:53:41;28.52;;;17.38;;
37791;SDS011;29527;55.766;37.570;2023-04-09T06:56:07;25.05;;;17.15;;
37791;SDS011;29527;55.766;37.570;2023-04-09T06:58:32;25.48;;;16.85;;
37791;SDS011;29527;55.766;37.570;2023-04-09T07:00:58;24.88;;;17.00;;
37791;SDS011;29527;55.766;37.570;2023-04-09T07:03:24;28.35;;;17.55;;
37791;SDS011;29527;55.766;37.570;2023-04-09T07:05:52;32.05;;;16.88;;
37791;SDS011;29527;55.766;37.570;2023-04-09T07:08:18;24.30;;;16.17;;
37791;SDS011;29527;55.766;37.570;2023-04-09T07:10:44;38.95;;;17.35;;
37791;SDS011;29527;55.766;37.570;2023-04-09T07:13:11;32.55;;;17.63;;
37791;SDS011;29527;55.766;37.570;2023-04-09T07:15:37;32.15;;;17.13;;
37791;SDS011;29527;55.766;37.570;2023-04-09T07:18:02;34.40;;;17.60;;
37791;SDS011;29527;55.766;37.570;2023-04-09T07:20:28;34.63;;;17.88;;
37791;SDS011;29527;55.766;37.570;2023-04-09T07:22:54;31.77;;;16.77;;
37791;SDS011;29527;55.766;37.570;2023-04-09T07:25:19;29.63;;;17.08;;
37791;SDS011;29527;55.766;37.570;2023-04-09T07:27:45;34.60;;;16.65;;
37791;SDS011;29527;55.766;37.570;2023-04-09T07:30:10;30.25;;;16.95;;
37791;SDS011;29527;55.766;37.570;2023-04-09T07:32:36;33.00;;;16.90;;
37791;SDS011;29527;55.766;37.570;2023-04-09T07:35:03;26.77;;;15.88;;
37791;SDS011;29527;55.766;37.570;2023-04-09T07:37:32;27.02;;;16.10;;
37791;SDS011;29527;55.766;37.570;2023-04-09T07:39:57;28.63;;;16.13;;
37791;SDS011;29527;55.766;37.570;2023-04-09T07:42:23;25.48;;;16.45;;
37791;SDS011;29527;55.766;37.570;2023-04-09T07:44:48;28.10;;;16.08;;
37791;SDS011;29527;55.766;37.570;2023-04-09T07:47:14;28.60;;;15.93;;
37791;SDS011;29527;55.766;37.570;2023-04-09T07:49:40;25.25;;;14.65;;
37791;SDS011;29527;55.766;37.570;2023-04-09T07:52:05;23.98;;;14.35;;
37791;SDS011;29527;55.766;37.570;2023-04-09T07:54:32;25.98;;;15.45;;
37791;SDS011;29527;55.766;37.570;2023-04-09T07:56:59;23.52;;;14.57;;
37791;SDS011;29527;55.766;37.570;2023-04-09T07:59:25;22.23;;;14.32;;
37791;SDS011;29527;55.766;37.570;2023-04-09T08:01:52;23.90;;;13.88;;
37791;SDS011;29527;55.766;37.570;2023-04-09T08:04:18;24.70;;;14.48;;
37791;SDS011;29527;55.766;37.570;2023-04-09T08:06:43;16.08;;;13.43;;
37791;SDS011;29527;55.766;37.570;2023-04-09T08:09:14;20.15;;;13.50;;
37791;SDS011;29527;55.766;37.570;2023-04-09T08:11:40;22.45;;;13.77;;
37791;SDS011;29527;55.766;37.570;2023-04-09T08:14:06;19.23;;;13.20;;
37791;SDS011;29527;55.766;37.570;2023-04-09T08:16:37;24.95;;;13.80;;
37791;SDS011;29527;55.766;37.570;2023-04-09T08:19:04;17.30;;;13.32;;
37791;SDS011;29527;55.766;37.570;2023-04-09T08:21:30;18.60;;;12.82;;
37791;SDS011;29527;55.766;37.570;2023-04-09T08:23:56;30.10;;;12.95;;
37791;SDS011;29527;55.766;37.570;2023-04-09T08:26:25;21.20;;;11.75;;
37791;SDS011;29527;55.766;37.570;2023-04-09T08:28:50;19.63;;;12.07;;
37791;SDS011;29527;55.766;37.570;2023-04-09T08:31:16;17.50;;;12.20;;
37791;SDS011;29527;55.766;37.570;2023-04-09T08:33:41;17.80;;;12.18;;
37791;SDS011;29527;55.766;37.570;2023-04-09T08:36:07;15.40;;;11.75;;
37791;SDS011;29527;55.766;37.570;2023-04-09T08:38:33;18.40;;;11.60;;
37791;SDS011;29527;55.766;37.570;2023-04-09T08:40:58;14.73;;;10.52;;
37791;SDS011;29527;55.766;37.570;2023-04-09T08:43:24;16.50;;;12.02;;
37791;SDS011;29527;55.766;37.570;2023-04-09T08:45:52;17.67;;;11.55;;
37791;SDS011;29527;55.766;37.570;2023-04-09T08:48:21;20.98;;;11.63;;
37791;SDS011;29527;55.766;37.570;2023-04-09T08:50:49;16.77;;;11.20;;
37791;SDS011;29527;55.766;37.570;2023-04-09T08:53:14;18.42;;;11.52;;
37791;SDS011;29527;55.766;37.570;2023-04-09T08:55:43;16.48;;;10.35;;
37791;SDS011;29527;55.766;37.570;2023-04-09T08:58:10;22.67;;;10.43;;
37791;SDS011;29527;55.766;37.570;2023-04-09T09:00:36;15.75;;;10.80;;
37791;SDS011;29527;55.766;37.570;2023-04-09T09:03:03;15.13;;;10.75;;
37791;SDS011;29527;55.766;37.570;2023-04-09T09:05:42;17.17;;;10.43;;
37791;SDS011;29527;55.766;37.570;2023-04-09T09:08:10;14.75;;;10.65;;
37791;SDS011;29527;55.766;37.570;2023-04-09T09:13:15;16.85;;;10.93;;
37791;SDS011;29527;55.766;37.570;2023-04-09T09:15:41;17.45;;;10.23;;
37791;SDS011;29527;55.766;37.570;2023-04-09T09:18:07;16.02;;;9.60;;
37791;SDS011;29527;55.766;37.570;2023-04-09T09:20:32;12.48;;;9.50;;
37791;SDS011;29527;55.766;37.570;2023-04-09T09:22:58;14.77;;;11.00;;
37791;SDS011;29527;55.766;37.570;2023-04-09T09:25:24;15.30;;;10.13;;
37791;SDS011;29527;55.766;37.570;2023-04-09T09:27:50;12.20;;;9.63;;
37791;SDS011;29527;55.766;37.570;2023-04-09T09:30:20;14.00;;;10.20;;
37791;SDS011;29527;55.766;37.570;2023-04-09T09:32:50;13.93;;;10.10;;
37791;SDS011;29527;55.766;37.570;2023-04-09T09:35:16;13.75;;;10.15;;
37791;SDS011;29527;55.766;37.570;2023-04-09T09:37:42;17.70;;;11.45;;
37791;SDS011;29527;55.766;37.570;2023-04-09T09:40:07;20.75;;;11.88;;
37791;SDS011;29527;55.766;37.570;2023-04-09T09:42:33;17.95;;;10.98;;
37791;SDS011;29527;55.766;37.570;2023-04-09T09:44:59;15.43;;;11.00;;
37791;SDS011;29527;55.766;37.570;2023-04-09T09:47:26;15.73;;;10.52;;
37791;SDS011;29527;55.766;37.570;2023-04-09T09:49:53;12.95;;;9.27;;
37791;SDS011;29527;55.766;37.570;2023-04-09T09:52:22;13.98;;;10.43;;
37791;SDS011;29527;55.766;37.570;2023-04-09T09:54:51;16.17;;;10.10;;
37791;SDS011;29527;55.766;37.570;2023-04-09T09:57:20;14.98;;;10.68;;
37791;SDS011;29527;55.766;37.570;2023-04-09T09:59:50;14.68;;;10.52;;
37791;SDS011;29527;55.766;37.570;2023-04-09T10:02:21;12.88;;;10.57;;
37791;SDS011;29527;55.766;37.570;2023-04-09T10:04:48;15.55;;;10.57;;
37791;SDS011;29527;55.766;37.570;2023-04-09T10:07:18;14.15;;;10.48;;
37791;SDS011;29527;55.766;37.570;2023-04-09T10:09:47;14.38;;;10.10;;
37791;SDS011;29527;55.766;37.570;2023-04-09T10:12:15;17.77;;;11.25;;
37791;SDS011;29527;55.766;37.570;2023-04-09T10:14:42;17.40;;;10.40;;
37791;SDS011;29527;55.766;37.570;2023-04-09T10:17:09;14.68;;;10.30;;
37791;SDS011;29527;55.766;37.570;2023-04-09T10:19:37;18.80;;;11.27;;
37791;SDS011;29527;55.766;37.570;2023-04-09T10:22:07;19.40;;;11.40;;
37791;SDS011;29527;55.766;37.570;2023-04-09T10:24:38;22.15;;;12.63;;
37791;SDS011;29527;55.766;37.570;2023-04-09T10:27:08;18.92;;;12.65;;
37791;SDS011;29527;55.766;37.570;2023-04-09T10:29:34;18.88;;;13.00;;
37791;SDS011;29527;55.766;37.570;2023-04-09T10:32:09;19.55;;;11.82;;
37791;SDS011;29527;55.766;37.570;2023-04-09T10:34:39;16.65;;;11.23;;
37791;SDS011;29527;55.766;37.570;2023-04-09T10:37:07;14.48;;;10.57;;
37791;SDS011;29527;55.766;37.570;2023-04-09T10:39:36;16.08;;;10.57;;
37791;SDS011;29527;55.766;37.570;2023-04-09T10:42:06;17.55;;;10.50;;
37791;SDS011;29527;55.766;37.570;2023-04-09T10:44:37;19.70;;;10.60;;
37791;SDS011;29527;55.766;37.570;2023-04-09T10:47:05;16.73;;;11.05;;
37791;SDS011;29527;55.766;37.570;2023-04-09T10:49:39;15.23;;;10.18;;
37791;SDS011;29527;55.766;37.570;2023-04-09T10:52:06;21.42;;;11.15;;
37791;SDS011;29527;55.766;37.570;2023-04-09T10:59:39;19.45;;;10.98;;
37791;SDS011;29527;55.766;37.570;2023-04-09T11:02:09;17.70;;;9.98;;
37791;SDS011;29527;55.766;37.570;2023-04-09T11:07:22;15.43;;;10.70;;
37791;SDS011;29527;55.766;37.570;2023-04-09T11:09:49;16.63;;;11.75;;
37791;SDS011;29527;55.766;37.570;2023-04-09T11:12:15;15.07;;;10.85;;
37791;SDS011;29527;55.766;37.570;2023-04-09T11:14:40;18.10;;;11.07;;
37791;SDS011;29527;55.766;37.570;2023-04-09T11:17:06;17.45;;;11.30;;
37791;SDS011;29527;55.766;37.570;2023-04-09T11:19:32;18.98;;;10.93;;
37791;SDS011;29527;55.766;37.570;2023-04-09T11:21:58;19.90;;;10.27;;
37791;SDS011;29527;55.766;37.570;2023-04-09T11:24:24;16.38;;;10.57;;
37791;SDS011;29527;55.766;37.570;2023-04-09T11:26:49;27.83;;;11.20;;
37791;SDS011;29527;55.766;37.570;2023-04-09T11:29:15;22.98;;;11.45;;
37791;SDS011;29527;55.766;37.570;2023-04-09T11:31:42;16.98;;;10.05;;
37791;SDS011;29527;55.766;37.570;2023-04-09T11:34:09;18.52;;;10.50;;
37791;SDS011;29527;55.766;37.570;2023-04-09T11:36:36;17.33;;;10.43;;
37791;SDS011;29527;55.766;37.570;2023-04-09T11:39:02;15.43;;;10.35;;
37791;SDS011;29527;55.766;37.570;2023-04-09T11:41:45;16.70;;;10.55;;
37791;SDS011;29527;55.766;37.570;2023-04-09T11:44:11;16.52;;;10.85;;
37791;SDS011;29527;55.766;37.570;2023-04-09T11:46:38;16.80;;;10.70;;
37791;SDS011;29527;55.766;37.570;2023-04-09T11:49:03;15.18;;;11.10;;
37791;SDS011;29527;55.766;37.570;2023-04-09T11:51:29;19.15;;;10.57;;
37791;SDS011;29527;55.766;37.570;2023-04-09T11:54:05;16.08;;;10.35;;
37791;SDS011;29527;55.766;37.570;2023-04-09T11:56:31;20.95;;;11.48;;
37791;SDS011;29527;55.766;37.570;2023-04-09T11:58:57;14.82;;;10.13;;
37791;SDS011;29527;55.766;37.570;2023-04-09T12:01:23;16.58;;;11.00;;
37791;SDS011;29527;55.766;37.570;2023-04-09T12:03:52;21.15;;;11.35;;
37791;SDS011;29527;55.766;37.570;2023-04-09T12:06:21;14.32;;;11.68;;
37791;SDS011;29527;55.766;37.570;2023-04-09T12:08:52;19.73;;;10.98;;
37791;SDS011;29527;55.766;37.570;2023-04-09T12:11:18;18.90;;;10.93;;
37791;SDS011;29527;55.766;37.570;2023-04-09T12:13:44;20.65;;;10.88;;
37791;SDS011;29527;55.766;37.570;2023-04-09T12:16:11;18.02;;;10.73;;
37791;SDS011;29527;55.766;37.570;2023-04-09T12:18:37;14.65;;;10.40;;
37791;SDS011;29527;55.766;37.570;2023-04-09T12:21:04;15.00;;;11.02;;
37791;SDS011;29527;55.766;37.570;2023-04-09T12:23:30;15.13;;;10.93;;
37791;SDS011;29527;55.766;37.570;2023-04-09T12:25:56;13.43;;;10.43;;
37791;SDS011;29527;55.766;37.570;2023-04-09T12:28:25;17.15;;;10.90;;
37791;SDS011;29527;55.766;37.570;2023-04-09T12:30:51;19.20;;;10.70;;
37791;SDS011;29527;55.766;37.570;2023-04-09T12:33:16;17.85;;;11.15;;
37791;SDS011;29527;55.766;37.570;2023-04-09T12:35:42;19.88;;;11.38;;
37791;SDS011;29527;55.766;37.570;2023-04-09T12:38:07;16.67;;;10.35;;
37791;SDS011;29527;55.766;37.570;2023-04-09T12:40:33;18.40;;;11.10;;
37791;SDS011;29527;55.766;37.570;2023-04-09T12:43:00;15.52;;;11.30;;
37791;SDS011;29527;55.766;37.570;2023-04-09T12:45:26;16.23;;;10.80;;
37791;SDS011;29527;55.766;37.570;2023-04-09T12:47:52;14.80;;;11.30;;
37791;SDS011;29527;55.766;37.570;2023-04-09T12:50:17;21.48;;;11.70;;
37791;SDS011;29527;55.766;37.570;2023-04-09T12:52:43;16.10;;;11.13;;
37791;SDS011;29527;55.766;37.570;2023-04-09T12:55:10;17.00;;;10.45;;
37791;SDS011;29527;55.766;37.570;2023-04-09T12:57:36;21.67;;;10.90;;
37791;SDS011;29527;55.766;37.570;2023-04-09T13:00:04;13.65;;;11.15;;
37791;SDS011;29527;55.766;37.570;2023-04-09T13:02:31;20.67;;;11.15;;
37791;SDS011;29527;55.766;37.570;2023-04-09T13:04:58;16.05;;;11.23;;
37791;SDS011;29527;55.766;37.570;2023-04-09T13:07:23;17.60;;;11.48;;
37791;SDS011;29527;55.766;37.570;2023-04-09T13:09:50;16.52;;;11.27;;
37791;SDS011;29527;55.766;37.570;2023-04-09T13:12:16;17.60;;;10.57;;
37791;SDS011;29527;55.766;37.570;2023-04-09T13:14:43;18.70;;;11.02;;
37791;SDS011;29527;55.766;37.570;2023-04-09T13:17:10;19.38;;;10.65;;
37791;SDS011;29527;55.766;37.570;2023-04-09T13:19:36;17.95;;;10.73;;
37791;SDS011;29527;55.766;37.570;2023-04-09T13:22:01;16.55;;;10.05;;
37791;SDS011;29527;55.766;37.570;2023-04-09T13:24:27;14.82;;;10.02;;
37791;SDS011;29527;55.766;37.570;2023-04-09T13:26:53;15.95;;;10.32;;
37791;SDS011;29527;55.766;37.570;2023-04-09T13:29:18;14.38;;;9.90;;
37791;SDS011;29527;55.766;37.570;2023-04-09T13:31:44;14.68;;;9.70;;
37791;SDS011;29527;55.766;37.570;2023-04-09T13:34:09;13.65;;;11.13;;
37791;SDS011;29527;55.766;37.570;2023-04-09T13:36:35;14.40;;;9.73;;
37791;SDS011;29527;55.766;37.570;2023-04-09T13:39:01;17.27;;;9.68;;
37791;SDS011;29527;55.766;37.570;2023-04-09T13:41:31;15.05;;;9.88;;
37791;SDS011;29527;55.766;37.570;2023-04-09T13:43:59;16.90;;;9.85;;
37791;SDS011;29527;55.766;37.570;2023-04-09T13:46:25;15.35;;;9.63;;
37791;SDS011;29527;55.766;37.570;2023-04-09T13:48:51;18.42;;;10.02;;
37791;SDS011;29527;55.766;37.570;2023-04-09T13:51:19;15.32;;;10.15;;
37791;SDS011;29527;55.766;37.570;2023-04-09T13:53:46;17.52;;;10.88;;
37791;SDS011;29527;55.766;37.570;2023-04-09T13:56:12;14.18;;;10.80;;
37791;SDS011;29527;55.766;37.570;2023-04-09T13:58:38;19.67;;;10.50;;
37791;SDS011;29527;55.766;37.570;2023-04-09T14:01:04;18.77;;;12.10;;
37791;SDS011;29527;55.766;37.570;2023-04-09T14:03:30;17.92;;;11.00;;
37791;SDS011;29527;55.766;37.570;2023-04-09T14:05:56;21.13;;;10.82;;
37791;SDS011;29527;55.766;37.570;2023-04-09T14:08:21;17.38;;;11.13;;
37791;SDS011;29527;55.766;37.570;2023-04-09T14:10:46;17.10;;;11.48;;
37791;SDS011;29527;55.766;37.570;2023-04-09T14:13:12;19.13;;;10.50;;
37791;SDS011;29527;55.766;37.570;2023-04-09T14:15:37;17.95;;;11.00;;
37791;SDS011;29527;55.766;37.570;2023-04-09T14:18:03;15.23;;;11.55;;
37791;SDS011;29527;55.766;37.570;2023-04-09T14:20:28;17.73;;;10.90;;
37791;SDS011;29527;55.766;37.570;2023-04-09T14:22:54;16.10;;;10.85;;
37791;SDS011;29527;55.766;37.570;2023-04-09T14:25:19;17.63;;;11.00;;
37791;SDS011;29527;55.766;37.570;2023-04-09T14:27:45;19.70;;;10.30;;